sensor_id;sensor_type;location;lat;lon;timestamp;P1;durP1;ratioP1;P2;durP2;ratioP2
37203;SDS011;23098;48.054;10.636;2022-09-09T00:04:37;3.13;;;2.10;;
37203;SDS011;23098;48.054;10.636;2022-09-09T00:15:43;3.72;;;2.17;;
37203;SDS011;23098;48.054;10.636;2022-09-09T00:21:06;5.13;;;2.65;;
37203;SDS011;23098;48.054;10.636;2022-09-09T00:23:38;4.45;;;2.47;;
37203;SDS011;23098;48.054;10.636;2022-09-09T00:26:16;3.60;;;2.30;;
37203;SDS011;23098;48.054;10.636;2022-09-09T00:31:33;2.72;;;2.03;;
37203;SDS011;23098;48.054;10.636;2022-09-09T00:34:03;3.20;;;2.00;;
37203;SDS011;23098;48.054;10.636;2022-09-09T00:36:33;3.95;;;2.00;;
37203;SDS011;23098;48.054;10.636;2022-09-09T00:39:05;2.38;;;1.90;;
37203;SDS011;23098;48.054;10.636;2022-09-09T00:48:10;2.67;;;1.85;;
37203;SDS011;23098;48.054;10.636;2022-09-09T00:51:03;4.05;;;2.40;;
37203;SDS011;23098;48.054;10.636;2022-09-09T00:53:58;4.20;;;1.95;;
37203;SDS011;23098;48.054;10.636;2022-09-09T00:56:51;3.13;;;1.85;;
37203;SDS011;23098;48.054;10.636;2022-09-09T01:14:48;3.97;;;1.92;;
37203;SDS011;23098;48.054;10.636;2022-09-09T01:20:39;3.35;;;2.40;;
37203;SDS011;23098;48.054;10.636;2022-09-09T01:23:41;3.47;;;2.30;;
37203;SDS011;23098;48.054;10.636;2022-09-09T01:26:34;4.82;;;2.20;;
37203;SDS011;23098;48.054;10.636;2022-09-09T01:29:12;3.33;;;2.20;;
37203;SDS011;23098;48.054;10.636;2022-09-09T01:34:54;5.40;;;2.50;;
37203;SDS011;23098;48.054;10.636;2022-09-09T01:37:20;3.28;;;2.03;;
37203;SDS011;23098;48.054;10.636;2022-09-09T01:39:46;4.05;;;2.42;;
37203;SDS011;23098;48.054;10.636;2022-09-09T01:42:13;5.15;;;2.10;;
37203;SDS011;23098;48.054;10.636;2022-09-09T01:44:41;4.43;;;1.92;;
37203;SDS011;23098;48.054;10.636;2022-09-09T01:47:08;2.75;;;2.28;;
37203;SDS011;23098;48.054;10.636;2022-09-09T01:49:34;4.10;;;2.40;;
37203;SDS011;23098;48.054;10.636;2022-09-09T01:52:01;3.65;;;2.28;;
37203;SDS011;23098;48.054;10.636;2022-09-09T01:54:29;5.45;;;2.55;;
37203;SDS011;23098;48.054;10.636;2022-09-09T02:00:11;4.30;;;2.40;;
37203;SDS011;23098;48.054;10.636;2022-09-09T02:03:05;3.25;;;2.38;;
37203;SDS011;23098;48.054;10.636;2022-09-09T02:08:55;2.40;;;2.20;;
37203;SDS011;23098;48.054;10.636;2022-09-09T02:11:32;3.35;;;2.50;;
37203;SDS011;23098;48.054;10.636;2022-09-09T02:16:32;3.30;;;2.60;;
37203;SDS011;23098;48.054;10.636;2022-09-09T02:19:21;4.43;;;2.55;;
37203;SDS011;23098;48.054;10.636;2022-09-09T02:21:56;4.25;;;2.50;;
37203;SDS011;23098;48.054;10.636;2022-09-09T02:24:29;3.58;;;2.70;;
37203;SDS011;23098;48.054;10.636;2022-09-09T02:27:00;4.17;;;2.60;;
37203;SDS011;23098;48.054;10.636;2022-09-09T02:29:47;3.80;;;2.60;;
37203;SDS011;23098;48.054;10.636;2022-09-09T02:32:16;4.80;;;2.60;;
37203;SDS011;23098;48.054;10.636;2022-09-09T02:34:47;4.47;;;2.78;;
37203;SDS011;23098;48.054;10.636;2022-09-09T02:37:20;5.78;;;2.40;;
37203;SDS011;23098;48.054;10.636;2022-09-09T02:39:50;7.50;;;2.70;;
37203;SDS011;23098;48.054;10.636;2022-09-09T02:42:17;3.70;;;2.65;;
37203;SDS011;23098;48.054;10.636;2022-09-09T02:44:44;5.40;;;2.38;;
37203;SDS011;23098;48.054;10.636;2022-09-09T02:47:26;3.72;;;2.42;;
37203;SDS011;23098;48.054;10.636;2022-09-09T02:50:22;3.63;;;2.53;;
37203;SDS011;23098;48.054;10.636;2022-09-09T02:53:19;2.92;;;2.45;;
37203;SDS011;23098;48.054;10.636;2022-09-09T02:56:00;3.53;;;2.65;;
37203;SDS011;23098;48.054;10.636;2022-09-09T02:58:35;4.93;;;2.50;;
37203;SDS011;23098;48.054;10.636;2022-09-09T03:01:06;3.55;;;2.50;;
37203;SDS011;23098;48.054;10.636;2022-09-09T03:03:45;3.95;;;2.50;;
37203;SDS011;23098;48.054;10.636;2022-09-09T03:06:20;3.45;;;2.58;;
37203;SDS011;23098;48.054;10.636;2022-09-09T03:08:53;2.80;;;2.53;;
37203;SDS011;23098;48.054;10.636;2022-09-09T03:11:36;3.05;;;2.50;;
37203;SDS011;23098;48.054;10.636;2022-09-09T03:14:08;4.45;;;2.60;;
37203;SDS011;23098;48.054;10.636;2022-09-09T03:16:37;3.63;;;2.38;;
37203;SDS011;23098;48.054;10.636;2022-09-09T03:19:36;3.15;;;2.53;;
37203;SDS011;23098;48.054;10.636;2022-09-09T03:23:14;2.92;;;2.50;;
37203;SDS011;23098;48.054;10.636;2022-09-09T03:25:55;3.50;;;2.30;;
37203;SDS011;23098;48.054;10.636;2022-09-09T03:29:04;3.45;;;2.55;;
37203;SDS011;23098;48.054;10.636;2022-09-09T03:31:33;7.03;;;2.88;;
37203;SDS011;23098;48.054;10.636;2022-09-09T03:34:02;5.10;;;2.55;;
37203;SDS011;23098;48.054;10.636;2022-09-09T03:36:27;3.05;;;2.72;;
37203;SDS011;23098;48.054;10.636;2022-09-09T03:38:54;5.57;;;2.67;;
37203;SDS011;23098;48.054;10.636;2022-09-09T03:41:21;3.97;;;2.58;;
37203;SDS011;23098;48.054;10.636;2022-09-09T03:43:53;3.47;;;2.70;;
37203;SDS011;23098;48.054;10.636;2022-09-09T03:46:27;3.65;;;2.40;;
37203;SDS011;23098;48.054;10.636;2022-09-09T03:48:54;6.90;;;3.00;;
37203;SDS011;23098;48.054;10.636;2022-09-09T03:51:36;2.60;;;2.40;;
37203;SDS011;23098;48.054;10.636;2022-09-09T03:54:12;4.82;;;2.60;;
37203;SDS011;23098;48.054;10.636;2022-09-09T03:57:10;3.53;;;2.50;;
37203;SDS011;23098;48.054;10.636;2022-09-09T03:59:41;2.90;;;2.45;;
37203;SDS011;23098;48.054;10.636;2022-09-09T04:02:08;4.57;;;2.90;;
37203;SDS011;23098;48.054;10.636;2022-09-09T04:04:40;4.32;;;2.78;;
37203;SDS011;23098;48.054;10.636;2022-09-09T04:07:10;3.53;;;2.70;;
37203;SDS011;23098;48.054;10.636;2022-09-09T04:09:39;6.95;;;2.70;;
37203;SDS011;23098;48.054;10.636;2022-09-09T04:12:09;2.92;;;2.63;;
37203;SDS011;23098;48.054;10.636;2022-09-09T04:15:25;7.68;;;2.80;;
37203;SDS011;23098;48.054;10.636;2022-09-09T04:17:55;4.22;;;2.40;;
37203;SDS011;23098;48.054;10.636;2022-09-09T04:20:21;4.35;;;2.58;;
37203;SDS011;23098;48.054;10.636;2022-09-09T04:22:47;3.75;;;2.58;;
37203;SDS011;23098;48.054;10.636;2022-09-09T04:25:13;6.30;;;2.50;;
37203;SDS011;23098;48.054;10.636;2022-09-09T04:27:42;3.20;;;2.90;;
37203;SDS011;23098;48.054;10.636;2022-09-09T04:30:08;3.00;;;2.47;;
37203;SDS011;23098;48.054;10.636;2022-09-09T04:32:37;4.13;;;2.55;;
37203;SDS011;23098;48.054;10.636;2022-09-09T04:35:02;3.55;;;2.70;;
37203;SDS011;23098;48.054;10.636;2022-09-09T04:37:31;5.15;;;3.00;;
37203;SDS011;23098;48.054;10.636;2022-09-09T04:39:57;4.45;;;2.85;;
37203;SDS011;23098;48.054;10.636;2022-09-09T04:42:27;3.03;;;2.65;;
37203;SDS011;23098;48.054;10.636;2022-09-09T04:44:55;7.00;;;2.63;;
37203;SDS011;23098;48.054;10.636;2022-09-09T04:47:21;3.65;;;2.53;;
37203;SDS011;23098;48.054;10.636;2022-09-09T04:49:49;2.70;;;2.50;;
37203;SDS011;23098;48.054;10.636;2022-09-09T04:52:15;5.47;;;2.53;;
37203;SDS011;23098;48.054;10.636;2022-09-09T04:54:42;3.05;;;2.72;;
37203;SDS011;23098;48.054;10.636;2022-09-09T04:59:53;3.70;;;2.50;;
37203;SDS011;23098;48.054;10.636;2022-09-09T05:02:36;5.55;;;2.53;;
37203;SDS011;23098;48.054;10.636;2022-09-09T05:05:37;3.38;;;2.58;;
37203;SDS011;23098;48.054;10.636;2022-09-09T05:11:17;3.22;;;2.42;;
37203;SDS011;23098;48.054;10.636;2022-09-09T05:13:55;3.40;;;2.50;;
37203;SDS011;23098;48.054;10.636;2022-09-09T05:16:22;4.70;;;2.40;;
37203;SDS011;23098;48.054;10.636;2022-09-09T05:18:48;3.05;;;2.55;;
37203;SDS011;23098;48.054;10.636;2022-09-09T05:21:19;3.47;;;2.30;;
37203;SDS011;23098;48.054;10.636;2022-09-09T05:23:51;4.63;;;2.13;;
37203;SDS011;23098;48.054;10.636;2022-09-09T05:26:28;6.45;;;2.30;;
37203;SDS011;23098;48.054;10.636;2022-09-09T05:34:29;9.40;;;2.85;;
37203;SDS011;23098;48.054;10.636;2022-09-09T05:36:55;13.70;;;2.80;;
37203;SDS011;23098;48.054;10.636;2022-09-09T05:41:59;23.65;;;2.90;;
37203;SDS011;23098;48.054;10.636;2022-09-09T05:44:46;16.50;;;3.40;;
37203;SDS011;23098;48.054;10.636;2022-09-09T05:47:36;12.40;;;2.42;;
37203;SDS011;23098;48.054;10.636;2022-09-09T05:50:03;8.55;;;3.00;;
37203;SDS011;23098;48.054;10.636;2022-09-09T05:52:45;8.63;;;2.30;;
37203;SDS011;23098;48.054;10.636;2022-09-09T05:57:49;3.15;;;1.63;;
37203;SDS011;23098;48.054;10.636;2022-09-09T06:00:17;6.55;;;1.77;;
37203;SDS011;23098;48.054;10.636;2022-09-09T06:02:43;2.67;;;1.50;;
37203;SDS011;23098;48.054;10.636;2022-09-09T06:05:08;5.65;;;1.50;;
37203;SDS011;23098;48.054;10.636;2022-09-09T06:07:35;5.28;;;1.65;;
37203;SDS011;23098;48.054;10.636;2022-09-09T06:10:02;8.18;;;1.83;;
37203;SDS011;23098;48.054;10.636;2022-09-09T06:12:28;4.70;;;1.90;;
37203;SDS011;23098;48.054;10.636;2022-09-09T06:14:53;3.13;;;1.45;;
37203;SDS011;23098;48.054;10.636;2022-09-09T06:17:19;3.42;;;1.70;;
37203;SDS011;23098;48.054;10.636;2022-09-09T06:19:45;4.13;;;1.77;;
37203;SDS011;23098;48.054;10.636;2022-09-09T06:22:10;3.63;;;1.80;;
37203;SDS011;23098;48.054;10.636;2022-09-09T06:24:41;5.47;;;1.80;;
37203;SDS011;23098;48.054;10.636;2022-09-09T06:27:07;4.57;;;1.70;;
37203;SDS011;23098;48.054;10.636;2022-09-09T06:29:32;5.07;;;2.00;;
37203;SDS011;23098;48.054;10.636;2022-09-09T06:31:58;3.47;;;1.70;;
37203;SDS011;23098;48.054;10.636;2022-09-09T06:34:24;5.75;;;2.20;;
37203;SDS011;23098;48.054;10.636;2022-09-09T06:36:49;5.10;;;1.80;;
37203;SDS011;23098;48.054;10.636;2022-09-09T06:39:17;5.53;;;1.77;;
37203;SDS011;23098;48.054;10.636;2022-09-09T06:41:42;3.53;;;1.60;;
37203;SDS011;23098;48.054;10.636;2022-09-09T06:44:08;5.47;;;1.77;;
37203;SDS011;23098;48.054;10.636;2022-09-09T06:46:36;4.38;;;1.67;;
37203;SDS011;23098;48.054;10.636;2022-09-09T06:49:01;2.65;;;1.50;;
37203;SDS011;23098;48.054;10.636;2022-09-09T06:51:34;4.72;;;1.30;;
37203;SDS011;23098;48.054;10.636;2022-09-09T07:38:10;4.13;;;0.90;;
37203;SDS011;23098;48.054;10.636;2022-09-09T07:56:08;4.00;;;0.82;;
37203;SDS011;23098;48.054;10.636;2022-09-09T08:01:17;3.03;;;0.90;;
37203;SDS011;23098;48.054;10.636;2022-09-09T08:03:45;3.28;;;1.10;;
37203;SDS011;23098;48.054;10.636;2022-09-09T08:08:50;3.97;;;1.00;;
37203;SDS011;23098;48.054;10.636;2022-09-09T08:11:19;3.47;;;1.02;;
37203;SDS011;23098;48.054;10.636;2022-09-09T08:13:48;3.80;;;0.90;;
37203;SDS011;23098;48.054;10.636;2022-09-09T08:16:25;4.93;;;0.90;;
37203;SDS011;23098;48.054;10.636;2022-09-09T08:19:02;3.70;;;0.97;;
37203;SDS011;23098;48.054;10.636;2022-09-09T08:21:34;2.22;;;1.08;;
37203;SDS011;23098;48.054;10.636;2022-09-09T08:24:11;2.97;;;0.70;;
37203;SDS011;23098;48.054;10.636;2022-09-09T08:40:00;2.53;;;0.70;;
37203;SDS011;23098;48.054;10.636;2022-09-09T08:42:30;1.57;;;0.70;;
37203;SDS011;23098;48.054;10.636;2022-09-09T09:12:29;1.30;;;0.60;;
37203;SDS011;23098;48.054;10.636;2022-09-09T09:15:00;4.05;;;0.73;;
37203;SDS011;23098;48.054;10.636;2022-09-09T09:17:27;5.93;;;0.70;;
37203;SDS011;23098;48.054;10.636;2022-09-09T09:22:39;4.22;;;1.02;;
37203;SDS011;23098;48.054;10.636;2022-09-09T09:25:21;7.80;;;1.00;;
37203;SDS011;23098;48.054;10.636;2022-09-09T09:27:58;4.15;;;1.00;;
37203;SDS011;23098;48.054;10.636;2022-09-09T09:30:35;4.93;;;1.08;;
37203;SDS011;23098;48.054;10.636;2022-09-09T09:33:17;10.15;;;1.15;;
37203;SDS011;23098;48.054;10.636;2022-09-09T09:35:43;5.40;;;1.20;;
37203;SDS011;23098;48.054;10.636;2022-09-09T09:38:22;4.85;;;1.00;;
37203;SDS011;23098;48.054;10.636;2022-09-09T09:40:54;2.93;;;0.80;;
37203;SDS011;23098;48.054;10.636;2022-09-09T09:43:26;3.45;;;0.82;;
37203;SDS011;23098;48.054;10.636;2022-09-09T09:48:37;8.07;;;1.20;;
37203;SDS011;23098;48.054;10.636;2022-09-09T09:51:07;5.50;;;0.82;;
37203;SDS011;23098;48.054;10.636;2022-09-09T09:53:36;2.63;;;0.88;;
37203;SDS011;23098;48.054;10.636;2022-09-09T09:56:04;4.45;;;1.10;;
37203;SDS011;23098;48.054;10.636;2022-09-09T09:58:37;7.72;;;1.35;;
37203;SDS011;23098;48.054;10.636;2022-09-09T10:01:25;5.10;;;0.80;;
37203;SDS011;23098;48.054;10.636;2022-09-09T10:03:56;3.45;;;0.80;;
37203;SDS011;23098;48.054;10.636;2022-09-09T10:06:33;3.70;;;0.80;;
37203;SDS011;23098;48.054;10.636;2022-09-09T10:22:39;2.55;;;0.80;;
37203;SDS011;23098;48.054;10.636;2022-09-09T10:25:34;4.55;;;1.00;;
37203;SDS011;23098;48.054;10.636;2022-09-09T10:33:43;2.72;;;0.80;;
37203;SDS011;23098;48.054;10.636;2022-09-09T10:36:29;4.47;;;0.93;;
37203;SDS011;23098;48.054;10.636;2022-09-09T10:39:31;3.88;;;1.08;;
37203;SDS011;23098;48.054;10.636;2022-09-09T10:56:19;5.72;;;0.88;;
37203;SDS011;23098;48.054;10.636;2022-09-09T10:58:51;5.32;;;1.00;;
37203;SDS011;23098;48.054;10.636;2022-09-09T11:04:10;6.03;;;1.40;;
37203;SDS011;23098;48.054;10.636;2022-09-09T11:07:05;3.28;;;0.90;;
37203;SDS011;23098;48.054;10.636;2022-09-09T11:09:41;6.65;;;0.93;;
37203;SDS011;23098;48.054;10.636;2022-09-09T11:12:15;3.67;;;0.90;;
37203;SDS011;23098;48.054;10.636;2022-09-09T11:14:46;4.47;;;0.95;;
37203;SDS011;23098;48.054;10.636;2022-09-09T11:17:23;4.75;;;0.98;;
37203;SDS011;23098;48.054;10.636;2022-09-09T11:19:54;3.70;;;0.93;;
37203;SDS011;23098;48.054;10.636;2022-09-09T11:22:33;3.05;;;0.82;;
37203;SDS011;23098;48.054;10.636;2022-09-09T11:25:16;5.25;;;0.95;;
37203;SDS011;23098;48.054;10.636;2022-09-09T11:39:00;2.75;;;0.82;;
37203;SDS011;23098;48.054;10.636;2022-09-09T11:41:37;5.43;;;1.00;;
37203;SDS011;23098;48.054;10.636;2022-09-09T11:44:17;2.95;;;1.00;;
37203;SDS011;23098;48.054;10.636;2022-09-09T11:47:15;5.82;;;1.00;;
37203;SDS011;23098;48.054;10.636;2022-09-09T11:52:41;3.45;;;0.93;;
37203;SDS011;23098;48.054;10.636;2022-09-09T12:03:05;3.85;;;0.90;;
37203;SDS011;23098;48.054;10.636;2022-09-09T12:05:51;7.82;;;0.93;;
37203;SDS011;23098;48.054;10.636;2022-09-09T12:08:21;4.15;;;1.10;;
37203;SDS011;23098;48.054;10.636;2022-09-09T12:10:55;4.22;;;0.77;;
37203;SDS011;23098;48.054;10.636;2022-09-09T12:13:23;3.70;;;0.85;;
37203;SDS011;23098;48.054;10.636;2022-09-09T12:15:56;2.00;;;0.65;;
37203;SDS011;23098;48.054;10.636;2022-09-09T12:18:37;4.45;;;1.05;;
37203;SDS011;23098;48.054;10.636;2022-09-09T12:21:11;5.55;;;0.82;;
37203;SDS011;23098;48.054;10.636;2022-09-09T12:23:54;5.55;;;0.98;;
37203;SDS011;23098;48.054;10.636;2022-09-09T12:26:26;3.53;;;0.93;;
37203;SDS011;23098;48.054;10.636;2022-09-09T12:31:49;3.55;;;0.80;;
37203;SDS011;23098;48.054;10.636;2022-09-09T12:34:39;3.00;;;0.65;;
37203;SDS011;23098;48.054;10.636;2022-09-09T12:37:17;3.10;;;0.70;;
37203;SDS011;23098;48.054;10.636;2022-09-09T12:40:14;6.88;;;1.00;;
37203;SDS011;23098;48.054;10.636;2022-09-09T12:42:48;3.78;;;0.80;;
37203;SDS011;23098;48.054;10.636;2022-09-09T12:45:15;3.25;;;0.80;;
37203;SDS011;23098;48.054;10.636;2022-09-09T12:50:21;4.45;;;1.00;;
37203;SDS011;23098;48.054;10.636;2022-09-09T12:52:59;1.63;;;0.60;;
37203;SDS011;23098;48.054;10.636;2022-09-09T12:55:29;6.63;;;0.90;;
37203;SDS011;23098;48.054;10.636;2022-09-09T12:57:58;4.63;;;0.80;;
37203;SDS011;23098;48.054;10.636;2022-09-09T13:00:26;2.78;;;0.95;;
37203;SDS011;23098;48.054;10.636;2022-09-09T13:05:24;3.72;;;0.70;;
37203;SDS011;23098;48.054;10.636;2022-09-09T13:08:00;4.25;;;0.85;;
37203;SDS011;23098;48.054;10.636;2022-09-09T13:10:31;4.72;;;0.73;;
37203;SDS011;23098;48.054;10.636;2022-09-09T13:13:14;4.43;;;0.93;;
37203;SDS011;23098;48.054;10.636;2022-09-09T13:15:48;3.63;;;0.90;;
37203;SDS011;23098;48.054;10.636;2022-09-09T13:18:16;1.80;;;0.70;;
37203;SDS011;23098;48.054;10.636;2022-09-09T13:20:49;3.60;;;0.88;;
37203;SDS011;23098;48.054;10.636;2022-09-09T13:23:16;3.50;;;1.00;;
37203;SDS011;23098;48.054;10.636;2022-09-09T13:25:59;1.85;;;0.80;;
37203;SDS011;23098;48.054;10.636;2022-09-09T13:28:27;5.00;;;0.75;;
37203;SDS011;23098;48.054;10.636;2022-09-09T13:31:01;11.65;;;1.10;;
37203;SDS011;23098;48.054;10.636;2022-09-09T13:33:36;2.13;;;0.70;;
37203;SDS011;23098;48.054;10.636;2022-09-09T13:36:07;1.35;;;0.70;;
37203;SDS011;23098;48.054;10.636;2022-09-09T13:41:05;2.17;;;0.70;;
37203;SDS011;23098;48.054;10.636;2022-09-09T13:43:35;3.25;;;0.70;;
37203;SDS011;23098;48.054;10.636;2022-09-09T13:48:59;1.52;;;0.70;;
37203;SDS011;23098;48.054;10.636;2022-09-09T13:51:33;2.63;;;0.60;;
37203;SDS011;23098;48.054;10.636;2022-09-09T13:54:02;3.95;;;0.57;;
37203;SDS011;23098;48.054;10.636;2022-09-09T13:56:31;1.20;;;0.60;;
37203;SDS011;23098;48.054;10.636;2022-09-09T13:58:58;2.65;;;0.77;;
37203;SDS011;23098;48.054;10.636;2022-09-09T14:01:31;1.42;;;0.55;;
37203;SDS011;23098;48.054;10.636;2022-09-09T14:09:18;1.67;;;0.60;;
37203;SDS011;23098;48.054;10.636;2022-09-09T14:33:12;3.50;;;0.90;;
37203;SDS011;23098;48.054;10.636;2022-09-09T14:35:39;1.35;;;0.65;;
37203;SDS011;23098;48.054;10.636;2022-09-09T14:38:06;2.40;;;0.55;;
37203;SDS011;23098;48.054;10.636;2022-09-09T14:40:49;1.95;;;0.60;;
37203;SDS011;23098;48.054;10.636;2022-09-09T14:43:20;1.05;;;0.43;;
37203;SDS011;23098;48.054;10.636;2022-09-09T14:45:46;2.25;;;0.63;;
37203;SDS011;23098;48.054;10.636;2022-09-09T14:48:13;2.67;;;0.77;;
37203;SDS011;23098;48.054;10.636;2022-09-09T14:50:40;2.47;;;0.70;;
37203;SDS011;23098;48.054;10.636;2022-09-09T14:53:09;1.50;;;0.47;;
37203;SDS011;23098;48.054;10.636;2022-09-09T14:55:36;3.38;;;0.70;;
37203;SDS011;23098;48.054;10.636;2022-09-09T14:58:14;3.80;;;0.80;;
37203;SDS011;23098;48.054;10.636;2022-09-09T15:00:40;2.80;;;1.38;;
37203;SDS011;23098;48.054;10.636;2022-09-09T15:03:07;19.52;;;11.50;;
37203;SDS011;23098;48.054;10.636;2022-09-09T15:05:36;26.13;;;15.25;;
37203;SDS011;23098;48.054;10.636;2022-09-09T15:08:02;2.85;;;1.40;;
37203;SDS011;23098;48.054;10.636;2022-09-09T15:10:28;6.65;;;4.57;;
37203;SDS011;23098;48.054;10.636;2022-09-09T15:13:01;14.75;;;10.50;;
37203;SDS011;23098;48.054;10.636;2022-09-09T15:15:30;2.42;;;1.88;;
37203;SDS011;23098;48.054;10.636;2022-09-09T15:18:01;2.70;;;0.68;;
37203;SDS011;23098;48.054;10.636;2022-09-09T15:20:31;5.50;;;0.80;;
37203;SDS011;23098;48.054;10.636;2022-09-09T15:22:57;1.48;;;0.85;;
37203;SDS011;23098;48.054;10.636;2022-09-09T15:25:22;2.60;;;0.90;;
37203;SDS011;23098;48.054;10.636;2022-09-09T15:27:50;1.35;;;0.80;;
37203;SDS011;23098;48.054;10.636;2022-09-09T15:30:16;1.58;;;0.80;;
37203;SDS011;23098;48.054;10.636;2022-09-09T15:32:41;4.88;;;0.80;;
37203;SDS011;23098;48.054;10.636;2022-09-09T15:35:07;1.40;;;0.70;;
37203;SDS011;23098;48.054;10.636;2022-09-09T15:37:33;2.20;;;0.80;;
37203;SDS011;23098;48.054;10.636;2022-09-09T15:39:59;1.67;;;0.70;;
37203;SDS011;23098;48.054;10.636;2022-09-09T15:42:25;1.70;;;0.65;;
37203;SDS011;23098;48.054;10.636;2022-09-09T15:44:54;2.03;;;0.82;;
37203;SDS011;23098;48.054;10.636;2022-09-09T15:47:20;1.55;;;0.75;;
37203;SDS011;23098;48.054;10.636;2022-09-09T15:49:46;2.72;;;0.80;;
37203;SDS011;23098;48.054;10.636;2022-09-09T15:52:11;1.33;;;0.70;;
37203;SDS011;23098;48.054;10.636;2022-09-09T15:54:37;4.20;;;0.80;;
37203;SDS011;23098;48.054;10.636;2022-09-09T15:57:04;2.28;;;0.93;;
37203;SDS011;23098;48.054;10.636;2022-09-09T15:59:31;2.20;;;0.77;;
37203;SDS011;23098;48.054;10.636;2022-09-09T16:01:59;4.57;;;0.70;;
37203;SDS011;23098;48.054;10.636;2022-09-09T16:04:25;5.10;;;0.90;;
37203;SDS011;23098;48.054;10.636;2022-09-09T16:06:54;4.13;;;0.77;;
37203;SDS011;23098;48.054;10.636;2022-09-09T16:09:23;1.50;;;0.70;;
37203;SDS011;23098;48.054;10.636;2022-09-09T16:11:55;1.25;;;0.68;;
37203;SDS011;23098;48.054;10.636;2022-09-09T16:14:23;1.50;;;0.77;;
37203;SDS011;23098;48.054;10.636;2022-09-09T16:16:50;2.35;;;0.80;;
37203;SDS011;23098;48.054;10.636;2022-09-09T16:19:18;1.98;;;0.70;;
37203;SDS011;23098;48.054;10.636;2022-09-09T16:21:45;4.03;;;0.80;;
37203;SDS011;23098;48.054;10.636;2022-09-09T16:24:14;5.05;;;1.00;;
37203;SDS011;23098;48.054;10.636;2022-09-09T16:26:47;1.85;;;0.90;;
37203;SDS011;23098;48.054;10.636;2022-09-09T16:29:16;3.33;;;0.75;;
37203;SDS011;23098;48.054;10.636;2022-09-09T16:31:44;1.45;;;0.70;;
37203;SDS011;23098;48.054;10.636;2022-09-09T16:34:10;1.60;;;0.80;;
37203;SDS011;23098;48.054;10.636;2022-09-09T16:36:37;3.78;;;0.77;;
37203;SDS011;23098;48.054;10.636;2022-09-09T16:39:15;2.72;;;0.70;;
37203;SDS011;23098;48.054;10.636;2022-09-09T16:41:42;3.28;;;0.90;;
37203;SDS011;23098;48.054;10.636;2022-09-09T16:44:10;1.73;;;0.80;;
37203;SDS011;23098;48.054;10.636;2022-09-09T16:46:43;2.45;;;0.68;;
37203;SDS011;23098;48.054;10.636;2022-09-09T16:49:16;2.05;;;0.75;;
37203;SDS011;23098;48.054;10.636;2022-09-09T16:51:44;2.85;;;0.68;;
37203;SDS011;23098;48.054;10.636;2022-09-09T17:04:57;2.30;;;0.80;;
37203;SDS011;23098;48.054;10.636;2022-09-09T17:07:26;3.10;;;1.10;;
37203;SDS011;23098;48.054;10.636;2022-09-09T17:09:52;3.08;;;0.93;;
37203;SDS011;23098;48.054;10.636;2022-09-09T17:12:19;2.38;;;1.00;;
37203;SDS011;23098;48.054;10.636;2022-09-09T17:14:46;3.05;;;0.90;;
37203;SDS011;23098;48.054;10.636;2022-09-09T17:17:12;2.45;;;1.05;;
37203;SDS011;23098;48.054;10.636;2022-09-09T17:19:37;1.98;;;0.80;;
37203;SDS011;23098;48.054;10.636;2022-09-09T17:22:03;2.78;;;0.80;;
37203;SDS011;23098;48.054;10.636;2022-09-09T17:24:29;3.20;;;1.05;;
37203;SDS011;23098;48.054;10.636;2022-09-09T17:26:59;1.63;;;0.90;;
37203;SDS011;23098;48.054;10.636;2022-09-09T17:29:29;3.80;;;0.90;;
37203;SDS011;23098;48.054;10.636;2022-09-09T17:31:56;1.63;;;0.82;;
37203;SDS011;23098;48.054;10.636;2022-09-09T17:34:24;2.55;;;0.77;;
37203;SDS011;23098;48.054;10.636;2022-09-09T17:36:51;2.67;;;0.90;;
37203;SDS011;23098;48.054;10.636;2022-09-09T17:39:18;3.53;;;1.00;;
37203;SDS011;23098;48.054;10.636;2022-09-09T17:41:44;2.33;;;0.80;;
37203;SDS011;23098;48.054;10.636;2022-09-09T17:44:10;2.42;;;1.02;;
37203;SDS011;23098;48.054;10.636;2022-09-09T17:46:37;5.85;;;1.20;;
37203;SDS011;23098;48.054;10.636;2022-09-09T17:49:11;2.00;;;0.82;;
37203;SDS011;23098;48.054;10.636;2022-09-09T17:54:07;2.13;;;0.70;;
37203;SDS011;23098;48.054;10.636;2022-09-09T17:56:36;1.65;;;0.90;;
37203;SDS011;23098;48.054;10.636;2022-09-09T17:59:07;1.27;;;1.00;;
37203;SDS011;23098;48.054;10.636;2022-09-09T18:01:39;2.13;;;1.02;;
37203;SDS011;23098;48.054;10.636;2022-09-09T18:04:14;3.83;;;1.20;;
37203;SDS011;23098;48.054;10.636;2022-09-09T18:06:51;3.40;;;1.90;;
37203;SDS011;23098;48.054;10.636;2022-09-09T18:09:22;4.03;;;1.52;;
37203;SDS011;23098;48.054;10.636;2022-09-09T18:11:51;3.25;;;1.50;;
37203;SDS011;23098;48.054;10.636;2022-09-09T18:14:21;5.70;;;1.60;;
37203;SDS011;23098;48.054;10.636;2022-09-09T18:16:49;3.45;;;1.33;;
37203;SDS011;23098;48.054;10.636;2022-09-09T18:19:17;2.63;;;1.30;;
37203;SDS011;23098;48.054;10.636;2022-09-09T18:21:46;2.58;;;1.20;;
37203;SDS011;23098;48.054;10.636;2022-09-09T18:24:13;1.20;;;1.10;;
37203;SDS011;23098;48.054;10.636;2022-09-09T18:26:43;3.08;;;1.40;;
37203;SDS011;23098;48.054;10.636;2022-09-09T18:29:16;2.95;;;1.20;;
37203;SDS011;23098;48.054;10.636;2022-09-09T18:31:46;2.15;;;1.52;;
37203;SDS011;23098;48.054;10.636;2022-09-09T18:34:31;3.75;;;1.40;;
37203;SDS011;23098;48.054;10.636;2022-09-09T18:37:31;2.67;;;1.30;;
37203;SDS011;23098;48.054;10.636;2022-09-09T18:40:00;2.45;;;1.13;;
37203;SDS011;23098;48.054;10.636;2022-09-09T18:42:36;2.03;;;1.00;;
37203;SDS011;23098;48.054;10.636;2022-09-09T18:45:36;2.60;;;1.05;;
37203;SDS011;23098;48.054;10.636;2022-09-09T18:48:05;2.10;;;0.95;;
37203;SDS011;23098;48.054;10.636;2022-09-09T18:50:33;4.28;;;1.40;;
37203;SDS011;23098;48.054;10.636;2022-09-09T18:52:59;1.48;;;1.10;;
37203;SDS011;23098;48.054;10.636;2022-09-09T18:58:06;3.05;;;1.40;;
37203;SDS011;23098;48.054;10.636;2022-09-09T19:00:35;3.63;;;1.60;;
37203;SDS011;23098;48.054;10.636;2022-09-09T19:03:11;2.85;;;1.30;;
37203;SDS011;23098;48.054;10.636;2022-09-09T19:06:13;3.20;;;1.30;;
37203;SDS011;23098;48.054;10.636;2022-09-09T19:08:44;2.65;;;1.20;;
37203;SDS011;23098;48.054;10.636;2022-09-09T19:11:19;5.43;;;1.70;;
37203;SDS011;23098;48.054;10.636;2022-09-09T19:13:54;4.15;;;1.60;;
37203;SDS011;23098;48.054;10.636;2022-09-09T19:16:27;2.75;;;1.45;;
37203;SDS011;23098;48.054;10.636;2022-09-09T19:19:01;3.75;;;1.38;;
37203;SDS011;23098;48.054;10.636;2022-09-09T19:21:39;3.67;;;1.60;;
37203;SDS011;23098;48.054;10.636;2022-09-09T19:24:11;4.10;;;1.40;;
37203;SDS011;23098;48.054;10.636;2022-09-09T19:26:49;2.67;;;1.52;;
37203;SDS011;23098;48.054;10.636;2022-09-09T19:29:21;2.10;;;1.40;;
37203;SDS011;23098;48.054;10.636;2022-09-09T19:31:49;3.95;;;1.70;;
37203;SDS011;23098;48.054;10.636;2022-09-09T19:34:30;5.57;;;2.00;;
37203;SDS011;23098;48.054;10.636;2022-09-09T19:37:20;5.38;;;1.90;;
37203;SDS011;23098;48.054;10.636;2022-09-09T19:39:55;4.00;;;2.13;;
37203;SDS011;23098;48.054;10.636;2022-09-09T19:42:25;3.35;;;2.05;;
37203;SDS011;23098;48.054;10.636;2022-09-09T19:44:54;2.42;;;2.20;;
37203;SDS011;23098;48.054;10.636;2022-09-09T19:47:23;5.20;;;2.58;;
37203;SDS011;23098;48.054;10.636;2022-09-09T19:49:52;3.50;;;2.30;;
37203;SDS011;23098;48.054;10.636;2022-09-09T19:52:20;4.13;;;2.00;;
37203;SDS011;23098;48.054;10.636;2022-09-09T19:57:29;3.90;;;1.90;;
37203;SDS011;23098;48.054;10.636;2022-09-09T20:00:08;4.05;;;3.10;;
37203;SDS011;23098;48.054;10.636;2022-09-09T20:02:37;4.53;;;3.08;;
37203;SDS011;23098;48.054;10.636;2022-09-09T20:05:11;5.22;;;3.00;;